sensor_id;sensor_type;location;lat;lon;timestamp;temperature;humidity
12874;DHT22;6505;51.114;13.128;2022-10-31T00:01:29;19.20;58.00
12874;DHT22;6505;51.114;13.128;2022-10-31T00:03:59;19.20;58.10
12874;DHT22;6505;51.114;13.128;2022-10-31T00:06:28;19.20;58.00
12874;DHT22;6505;51.114;13.128;2022-10-31T00:08:59;19.20;58.00
12874;DHT22;6505;51.114;13.128;2022-10-31T00:11:29;19.20;58.00
12874;DHT22;6505;51.114;13.128;2022-10-31T00:13:57;19.20;57.90
12874;DHT22;6505;51.114;13.128;2022-10-31T00:16:26;19.20;57.90
12874;DHT22;6505;51.114;13.128;2022-10-31T00:18:57;19.10;57.90
12874;DHT22;6505;51.114;13.128;2022-10-31T00:21:28;19.10;57.90
12874;DHT22;6505;51.114;13.128;2022-10-31T00:23:59;19.10;57.80
12874;DHT22;6505;51.114;13.128;2022-10-31T00:26:28;19.10;57.80
12874;DHT22;6505;51.114;13.128;2022-10-31T00:28:57;19.10;57.70
12874;DHT22;6505;51.114;13.128;2022-10-31T00:31:26;19.10;57.70
12874;DHT22;6505;51.114;13.128;2022-10-31T00:33:54;19.10;57.80
12874;DHT22;6505;51.114;13.128;2022-10-31T00:36:25;19.10;57.80
12874;DHT22;6505;51.114;13.128;2022-10-31T00:38:53;19.00;57.70
12874;DHT22;6505;51.114;13.128;2022-10-31T00:41:22;19.00;57.60
12874;DHT22;6505;51.114;13.128;2022-10-31T00:43:50;19.00;57.50
12874;DHT22;6505;51.114;13.128;2022-10-31T00:46:18;19.00;57.50
12874;DHT22;6505;51.114;13.128;2022-10-31T00:48:49;19.00;57.50
12874;DHT22;6505;51.114;13.128;2022-10-31T00:51:17;19.00;57.60
12874;DHT22;6505;51.114;13.128;2022-10-31T00:53:45;19.00;57.50
12874;DHT22;6505;51.114;13.128;2022-10-31T00:56:13;19.00;57.50
12874;DHT22;6505;51.114;13.128;2022-10-31T00:58:43;18.90;57.50
12874;DHT22;6505;51.114;13.128;2022-10-31T01:01:11;18.90;57.50
12874;DHT22;6505;51.114;13.128;2022-10-31T01:03:39;18.90;57.50
12874;DHT22;6505;51.114;13.128;2022-10-31T01:06:12;18.90;57.50
12874;DHT22;6505;51.114;13.128;2022-10-31T01:08:41;18.90;57.50
12874;DHT22;6505;51.114;13.128;2022-10-31T01:11:13;18.90;57.50
12874;DHT22;6505;51.114;13.128;2022-10-31T01:13:45;18.80;57.40
12874;DHT22;6505;51.114;13.128;2022-10-31T01:16:16;18.80;57.40
12874;DHT22;6505;51.114;13.128;2022-10-31T01:18:45;18.80;57.40
12874;DHT22;6505;51.114;13.128;2022-10-31T01:21:16;18.90;57.50
12874;DHT22;6505;51.114;13.128;2022-10-31T01:23:48;18.80;57.40
12874;DHT22;6505;51.114;13.128;2022-10-31T01:26:18;18.80;57.40
12874;DHT22;6505;51.114;13.128;2022-10-31T01:28:51;18.80;57.50
12874;DHT22;6505;51.114;13.128;2022-10-31T01:31:23;18.80;57.50
12874;DHT22;6505;51.114;13.128;2022-10-31T01:33:53;18.70;57.50
12874;DHT22;6505;51.114;13.128;2022-10-31T01:36:23;18.80;57.50
12874;DHT22;6505;51.114;13.128;2022-10-31T01:38:58;18.70;57.50
12874;DHT22;6505;51.114;13.128;2022-10-31T01:41:30;18.70;57.60
12874;DHT22;6505;51.114;13.128;2022-10-31T01:44:03;18.70;57.40
12874;DHT22;6505;51.114;13.128;2022-10-31T01:47:13;18.70;57.20
12874;DHT22;6505;51.114;13.128;2022-10-31T01:49:46;18.70;57.10
12874;DHT22;6505;51.114;13.128;2022-10-31T01:52:20;18.70;57.10
12874;DHT22;6505;51.114;13.128;2022-10-31T01:54:55;18.70;57.20
12874;DHT22;6505;51.114;13.128;2022-10-31T01:57:27;18.70;57.20
12874;DHT22;6505;51.114;13.128;2022-10-31T02:00:03;18.60;57.20
12874;DHT22;6505;51.114;13.128;2022-10-31T02:02:39;18.60;57.20
12874;DHT22;6505;51.114;13.128;2022-10-31T02:05:11;18.60;57.20
12874;DHT22;6505;51.114;13.128;2022-10-31T02:07:45;18.60;57.20
12874;DHT22;6505;51.114;13.128;2022-10-31T02:10:26;18.60;57.30
12874;DHT22;6505;51.114;13.128;2022-10-31T02:12:57;18.60;57.30
12874;DHT22;6505;51.114;13.128;2022-10-31T02:15:30;18.60;57.20
12874;DHT22;6505;51.114;13.128;2022-10-31T02:18:00;18.50;57.10
12874;DHT22;6505;51.114;13.128;2022-10-31T02:20:32;18.60;57.20
12874;DHT22;6505;51.114;13.128;2022-10-31T02:26:51;18.50;57.20
12874;DHT22;6505;51.114;13.128;2022-10-31T02:29:41;18.50;57.20
12874;DHT22;6505;51.114;13.128;2022-10-31T02:32:46;18.50;57.20
12874;DHT22;6505;51.114;13.128;2022-10-31T02:35:33;18.40;57.20
12874;DHT22;6505;51.114;13.128;2022-10-31T02:38:23;18.40;57.10
12874;DHT22;6505;51.114;13.128;2022-10-31T02:41:03;18.40;57.10
12874;DHT22;6505;51.114;13.128;2022-10-31T02:43:47;18.40;57.00
12874;DHT22;6505;51.114;13.128;2022-10-31T02:46:27;18.40;57.00
12874;DHT22;6505;51.114;13.128;2022-10-31T02:49:08;18.40;57.00
12874;DHT22;6505;51.114;13.128;2022-10-31T02:51:43;18.30;56.90
12874;DHT22;6505;51.114;13.128;2022-10-31T02:54:22;18.30;56.90
12874;DHT22;6505;51.114;13.128;2022-10-31T02:56:56;18.30;56.90
12874;DHT22;6505;51.114;13.128;2022-10-31T02:59:29;18.20;57.00
12874;DHT22;6505;51.114;13.128;2022-10-31T03:02:15;18.30;57.20
12874;DHT22;6505;51.114;13.128;2022-10-31T03:05:02;18.30;57.10
12874;DHT22;6505;51.114;13.128;2022-10-31T03:07:44;18.40;57.20
12874;DHT22;6505;51.114;13.128;2022-10-31T03:10:27;18.20;57.10
12874;DHT22;6505;51.114;13.128;2022-10-31T03:13:08;18.20;57.00
12874;DHT22;6505;51.114;13.128;2022-10-31T03:15:43;18.30;57.10
12874;DHT22;6505;51.114;13.128;2022-10-31T03:18:15;18.20;57.00
12874;DHT22;6505;51.114;13.128;2022-10-31T03:20:53;18.20;57.10
12874;DHT22;6505;51.114;13.128;2022-10-31T03:23:28;18.20;57.10
12874;DHT22;6505;51.114;13.128;2022-10-31T03:26:00;18.20;57.00
12874;DHT22;6505;51.114;13.128;2022-10-31T03:28:36;18.20;57.00
12874;DHT22;6505;51.114;13.128;2022-10-31T03:31:10;18.20;57.00
12874;DHT22;6505;51.114;13.128;2022-10-31T03:33:42;18.10;57.00
12874;DHT22;6505;51.114;13.128;2022-10-31T03:36:15;18.20;57.20
12874;DHT22;6505;51.114;13.128;2022-10-31T03:38:44;18.10;57.10
12874;DHT22;6505;51.114;13.128;2022-10-31T03:41:19;18.10;57.00
12874;DHT22;6505;51.114;13.128;2022-10-31T03:43:54;18.10;57.00
12874;DHT22;6505;51.114;13.128;2022-10-31T03:46:25;18.10;56.90
12874;DHT22;6505;51.114;13.128;2022-10-31T03:48:57;18.10;56.90
12874;DHT22;6505;51.114;13.128;2022-10-31T03:51:33;18.10;57.00
12874;DHT22;6505;51.114;13.128;2022-10-31T03:54:11;18.10;57.00
12874;DHT22;6505;51.114;13.128;2022-10-31T03:56:48;18.00;56.90
12874;DHT22;6505;51.114;13.128;2022-10-31T03:59:26;18.00;57.00
12874;DHT22;6505;51.114;13.128;2022-10-31T04:02:03;18.00;57.00
12874;DHT22;6505;51.114;13.128;2022-10-31T04:04:35;18.00;56.90
12874;DHT22;6505;51.114;13.128;2022-10-31T04:07:07;18.00;56.90
12874;DHT22;6505;51.114;13.128;2022-10-31T04:09:40;18.00;56.80
12874;DHT22;6505;51.114;13.128;2022-10-31T04:12:14;18.00;56.90
12874;DHT22;6505;51.114;13.128;2022-10-31T04:15:02;17.90;56.80
12874;DHT22;6505;51.114;13.128;2022-10-31T04:17:35;17.90;56.80
12874;DHT22;6505;51.114;13.128;2022-10-31T04:20:06;18.00;56.90
12874;DHT22;6505;51.114;13.128;2022-10-31T04:22:37;17.90;56.80
12874;DHT22;6505;51.114;13.128;2022-10-31T04:25:06;17.90;56.70
12874;DHT22;6505;51.114;13.128;2022-10-31T04:27:36;17.90;56.90
12874;DHT22;6505;51.114;13.128;2022-10-31T04:30:07;17.90;56.70
12874;DHT22;6505;51.114;13.128;2022-10-31T04:32:39;17.90;56.80
12874;DHT22;6505;51.114;13.128;2022-10-31T04:35:07;17.90;56.80
12874;DHT22;6505;51.114;13.128;2022-10-31T04:37:37;17.90;56.80
12874;DHT22;6505;51.114;13.128;2022-10-31T04:40:06;17.90;56.80
12874;DHT22;6505;51.114;13.128;2022-10-31T04:43:01;17.80;56.80
12874;DHT22;6505;51.114;13.128;2022-10-31T04:45:30;17.90;56.80
12874;DHT22;6505;51.114;13.128;2022-10-31T04:47:58;17.80;56.70
12874;DHT22;6505;51.114;13.128;2022-10-31T04:50:30;17.90;56.80
12874;DHT22;6505;51.114;13.128;2022-10-31T04:53:00;17.80;56.60
12874;DHT22;6505;51.114;13.128;2022-10-31T04:55:35;17.80;56.70
12874;DHT22;6505;51.114;13.128;2022-10-31T04:58:12;17.90;56.80
12874;DHT22;6505;51.114;13.128;2022-10-31T05:00:45;17.80;56.70
12874;DHT22;6505;51.114;13.128;2022-10-31T05:03:13;17.80;56.80
12874;DHT22;6505;51.114;13.128;2022-10-31T05:05:42;17.80;56.70
12874;DHT22;6505;51.114;13.128;2022-10-31T05:08:13;17.70;56.60
12874;DHT22;6505;51.114;13.128;2022-10-31T05:10:41;17.70;56.60
12874;DHT22;6505;51.114;13.128;2022-10-31T05:13:09;17.70;56.60
12874;DHT22;6505;51.114;13.128;2022-10-31T05:15:56;17.70;56.60
12874;DHT22;6505;51.114;13.128;2022-10-31T05:18:51;17.70;56.60
12874;DHT22;6505;51.114;13.128;2022-10-31T05:21:38;17.70;56.60
12874;DHT22;6505;51.114;13.128;2022-10-31T05:24:09;17.70;56.60
12874;DHT22;6505;51.114;13.128;2022-10-31T05:26:39;17.70;56.60
12874;DHT22;6505;51.114;13.128;2022-10-31T05:29:07;17.70;56.50
12874;DHT22;6505;51.114;13.128;2022-10-31T05:31:35;17.70;56.60
12874;DHT22;6505;51.114;13.128;2022-10-31T05:34:05;17.70;56.60
12874;DHT22;6505;51.114;13.128;2022-10-31T05:37:02;17.60;56.50
12874;DHT22;6505;51.114;13.128;2022-10-31T05:39:32;17.60;56.60
12874;DHT22;6505;51.114;13.128;2022-10-31T05:42:07;17.70;56.60
12874;DHT22;6505;51.114;13.128;2022-10-31T05:44:35;17.60;56.50
12874;DHT22;6505;51.114;13.128;2022-10-31T05:47:18;17.60;56.50
12874;DHT22;6505;51.114;13.128;2022-10-31T05:50:09;17.60;56.50
12874;DHT22;6505;51.114;13.128;2022-10-31T05:52:55;17.50;56.40
12874;DHT22;6505;51.114;13.128;2022-10-31T05:55:31;17.50;56.50
12874;DHT22;6505;51.114;13.128;2022-10-31T05:58:16;17.50;56.60
12874;DHT22;6505;51.114;13.128;2022-10-31T06:00:58;17.50;56.40
12874;DHT22;6505;51.114;13.128;2022-10-31T06:03:27;17.50;56.50
12874;DHT22;6505;51.114;13.128;2022-10-31T06:05:56;17.50;56.50
12874;DHT22;6505;51.114;13.128;2022-10-31T06:08:29;17.50;56.60
12874;DHT22;6505;51.114;13.128;2022-10-31T06:11:03;17.50;56.70
12874;DHT22;6505;51.114;13.128;2022-10-31T06:13:52;17.50;56.70
12874;DHT22;6505;51.114;13.128;2022-10-31T06:16:24;17.50;56.70
12874;DHT22;6505;51.114;13.128;2022-10-31T06:18:55;17.50;56.70
12874;DHT22;6505;51.114;13.128;2022-10-31T06:21:24;17.50;56.80
12874;DHT22;6505;51.114;13.128;2022-10-31T06:23:52;17.50;56.70
12874;DHT22;6505;51.114;13.128;2022-10-31T06:26:44;17.50;56.90
12874;DHT22;6505;51.114;13.128;2022-10-31T06:29:14;17.50;56.90
12874;DHT22;6505;51.114;13.128;2022-10-31T06:31:55;17.50;56.90
12874;DHT22;6505;51.114;13.128;2022-10-31T06:34:25;17.50;57.00
12874;DHT22;6505;51.114;13.128;2022-10-31T06:36:53;17.50;57.00
12874;DHT22;6505;51.114;13.128;2022-10-31T06:39:24;17.50;57.00
12874;DHT22;6505;51.114;13.128;2022-10-31T06:41:53;17.50;56.90
12874;DHT22;6505;51.114;13.128;2022-10-31T06:44:22;17.60;57.20
12874;DHT22;6505;51.114;13.128;2022-10-31T06:46:53;17.50;57.10
12874;DHT22;6505;51.114;13.128;2022-10-31T06:49:41;17.50;57.30
12874;DHT22;6505;51.114;13.128;2022-10-31T06:52:14;17.50;57.20
12874;DHT22;6505;51.114;13.128;2022-10-31T06:54:43;17.50;57.20
12874;DHT22;6505;51.114;13.128;2022-10-31T06:57:15;17.50;57.30
12874;DHT22;6505;51.114;13.128;2022-10-31T06:59:43;17.50;57.50
12874;DHT22;6505;51.114;13.128;2022-10-31T07:02:15;17.50;57.50
12874;DHT22;6505;51.114;13.128;2022-10-31T07:04:44;17.50;57.60
12874;DHT22;6505;51.114;13.128;2022-10-31T07:07:13;17.50;57.60
12874;DHT22;6505;51.114;13.128;2022-10-31T07:09:41;17.60;58.50
12874;DHT22;6505;51.114;13.128;2022-10-31T07:12:15;17.50;57.80
12874;DHT22;6505;51.114;13.128;2022-10-31T07:14:51;17.60;58.20
12874;DHT22;6505;51.114;13.128;2022-10-31T07:17:23;17.60;58.20
12874;DHT22;6505;51.114;13.128;2022-10-31T07:19:58;17.60;58.40
12874;DHT22;6505;51.114;13.128;2022-10-31T07:22:32;17.60;58.40
12874;DHT22;6505;51.114;13.128;2022-10-31T07:25:02;17.60;58.70
12874;DHT22;6505;51.114;13.128;2022-10-31T07:27:58;17.60;58.90
12874;DHT22;6505;51.114;13.128;2022-10-31T07:30:27;17.70;58.90
12874;DHT22;6505;51.114;13.128;2022-10-31T07:32:56;17.60;58.80
12874;DHT22;6505;51.114;13.128;2022-10-31T07:35:37;17.60;58.90
12874;DHT22;6505;51.114;13.128;2022-10-31T07:38:09;17.70;59.10
12874;DHT22;6505;51.114;13.128;2022-10-31T07:40:39;17.70;59.40
12874;DHT22;6505;51.114;13.128;2022-10-31T07:43:10;17.70;59.40
12874;DHT22;6505;51.114;13.128;2022-10-31T07:45:57;17.70;59.60
12874;DHT22;6505;51.114;13.128;2022-10-31T07:48:57;17.70;59.60
12874;DHT22;6505;51.114;13.128;2022-10-31T07:51:49;17.70;60.00
12874;DHT22;6505;51.114;13.128;2022-10-31T07:54:36;17.90;60.50
12874;DHT22;6505;51.114;13.128;2022-10-31T07:57:07;17.90;60.80
12874;DHT22;6505;51.114;13.128;2022-10-31T07:59:38;18.10;61.60
12874;DHT22;6505;51.114;13.128;2022-10-31T08:02:08;18.10;60.60
12874;DHT22;6505;51.114;13.128;2022-10-31T08:04:42;18.20;60.60
12874;DHT22;6505;51.114;13.128;2022-10-31T08:07:39;18.20;60.50
12874;DHT22;6505;51.114;13.128;2022-10-31T08:10:16;18.30;60.60
12874;DHT22;6505;51.114;13.128;2022-10-31T08:12:44;18.30;60.70
12874;DHT22;6505;51.114;13.128;2022-10-31T08:15:14;18.40;61.00
12874;DHT22;6505;51.114;13.128;2022-10-31T08:17:42;18.40;61.30
12874;DHT22;6505;51.114;13.128;2022-10-31T08:20:10;18.40;61.30
12874;DHT22;6505;51.114;13.128;2022-10-31T08:22:53;18.40;61.60
12874;DHT22;6505;51.114;13.128;2022-10-31T08:25:22;18.50;61.70
12874;DHT22;6505;51.114;13.128;2022-10-31T08:27:52;18.50;61.90
12874;DHT22;6505;51.114;13.128;2022-10-31T08:30:25;18.60;62.00
12874;DHT22;6505;51.114;13.128;2022-10-31T08:33:16;18.60;62.20
12874;DHT22;6505;51.114;13.128;2022-10-31T08:36:04;18.70;62.30
12874;DHT22;6505;51.114;13.128;2022-10-31T08:38:56;18.70;62.30
12874;DHT22;6505;51.114;13.128;2022-10-31T08:41:28;18.70;62.30
12874;DHT22;6505;51.114;13.128;2022-10-31T08:43:58;18.80;63.30
12874;DHT22;6505;51.114;13.128;2022-10-31T08:46:28;18.80;62.50
12874;DHT22;6505;51.114;13.128;2022-10-31T08:48:56;18.80;62.60
12874;DHT22;6505;51.114;13.128;2022-10-31T08:51:24;18.80;62.40
12874;DHT22;6505;51.114;13.128;2022-10-31T08:53:54;18.90;62.80
12874;DHT22;6505;51.114;13.128;2022-10-31T08:56:41;18.90;63.10
12874;DHT22;6505;51.114;13.128;2022-10-31T08:59:23;19.00;63.30
12874;DHT22;6505;51.114;13.128;2022-10-31T09:02:12;19.10;63.70
12874;DHT22;6505;51.114;13.128;2022-10-31T09:04:40;19.00;63.50
12874;DHT22;6505;51.114;13.128;2022-10-31T09:07:08;19.10;63.80
12874;DHT22;6505;51.114;13.128;2022-10-31T09:09:53;19.10;63.80
12874;DHT22;6505;51.114;13.128;2022-10-31T09:12:22;19.10;63.80
12874;DHT22;6505;51.114;13.128;2022-10-31T09:15:10;19.10;63.80
12874;DHT22;6505;51.114;13.128;2022-10-31T09:17:47;19.10;63.80
12874;DHT22;6505;51.114;13.128;2022-10-31T09:20:39;19.20;63.90
12874;DHT22;6505;51.114;13.128;2022-10-31T09:23:10;19.20;64.00
12874;DHT22;6505;51.114;13.128;2022-10-31T09:25:40;19.20;63.70
12874;DHT22;6505;51.114;13.128;2022-10-31T09:28:34;19.30;63.90
12874;DHT22;6505;51.114;13.128;2022-10-31T09:31:07;19.30;63.70
12874;DHT22;6505;51.114;13.128;2022-10-31T09:33:58;19.30;63.80
12874;DHT22;6505;51.114;13.128;2022-10-31T09:36:37;19.40;63.90
12874;DHT22;6505;51.114;13.128;2022-10-31T09:39:23;19.30;64.10
12874;DHT22;6505;51.114;13.128;2022-10-31T09:42:24;19.40;64.10
12874;DHT22;6505;51.114;13.128;2022-10-31T09:45:14;19.40;64.30
12874;DHT22;6505;51.114;13.128;2022-10-31T09:48:03;19.40;64.20
12874;DHT22;6505;51.114;13.128;2022-10-31T09:51:03;19.40;64.30
12874;DHT22;6505;51.114;13.128;2022-10-31T09:53:55;19.50;64.40
12874;DHT22;6505;51.114;13.128;2022-10-31T09:56:31;19.50;64.40
12874;DHT22;6505;51.114;13.128;2022-10-31T09:59:04;19.50;64.30
12874;DHT22;6505;51.114;13.128;2022-10-31T10:01:44;19.50;64.50
12874;DHT22;6505;51.114;13.128;2022-10-31T10:07:22;19.60;65.00
12874;DHT22;6505;51.114;13.128;2022-10-31T10:10:31;19.70;65.30
12874;DHT22;6505;51.114;13.128;2022-10-31T10:13:42;19.60;64.80
12874;DHT22;6505;51.114;13.128;2022-10-31T10:16:36;19.70;64.90
12874;DHT22;6505;51.114;13.128;2022-10-31T10:19:33;19.70;64.90
12874;DHT22;6505;51.114;13.128;2022-10-31T10:22:22;19.70;64.90
12874;DHT22;6505;51.114;13.128;2022-10-31T10:25:07;19.70;64.50
12874;DHT22;6505;51.114;13.128;2022-10-31T10:27:47;19.70;64.60
12874;DHT22;6505;51.114;13.128;2022-10-31T10:30:21;19.80;64.90
12874;DHT22;6505;51.114;13.128;2022-10-31T10:32:56;19.80;65.00
12874;DHT22;6505;51.114;13.128;2022-10-31T10:35:29;19.80;65.10
12874;DHT22;6505;51.114;13.128;2022-10-31T10:38:09;19.80;65.20
12874;DHT22;6505;51.114;13.128;2022-10-31T10:40:42;19.80;65.20
12874;DHT22;6505;51.114;13.128;2022-10-31T10:43:21;19.80;65.20
12874;DHT22;6505;51.114;13.128;2022-10-31T10:46:00;19.90;65.50
12874;DHT22;6505;51.114;13.128;2022-10-31T10:49:12;19.90;65.60
12874;DHT22;6505;51.114;13.128;2022-10-31T10:51:46;19.90;65.40
12874;DHT22;6505;51.114;13.128;2022-10-31T10:54:49;19.90;65.40
12874;DHT22;6505;51.114;13.128;2022-10-31T10:57:34;20.00;65.70
12874;DHT22;6505;51.114;13.128;2022-10-31T11:00:18;20.00;65.50
12874;DHT22;6505;51.114;13.128;2022-10-31T11:02:49;20.00;65.50
12874;DHT22;6505;51.114;13.128;2022-10-31T11:05:28;20.00;65.40
12874;DHT22;6505;51.114;13.128;2022-10-31T11:08:00;20.10;65.40
12874;DHT22;6505;51.114;13.128;2022-10-31T11:10:30;20.10;65.20
12874;DHT22;6505;51.114;13.128;2022-10-31T11:13:04;20.10;65.10
12874;DHT22;6505;51.114;13.128;2022-10-31T11:15:56;20.10;65.00
12874;DHT22;6505;51.114;13.128;2022-10-31T11:18:27;20.20;65.00
12874;DHT22;6505;51.114;13.128;2022-10-31T11:20:59;20.20;65.20
12874;DHT22;6505;51.114;13.128;2022-10-31T11:23:29;20.20;65.00
12874;DHT22;6505;51.114;13.128;2022-10-31T11:26:02;20.20;65.00
12874;DHT22;6505;51.114;13.128;2022-10-31T11:28:33;20.30;65.30
12874;DHT22;6505;51.114;13.128;2022-10-31T11:31:06;20.30;65.40
12874;DHT22;6505;51.114;13.128;2022-10-31T11:33:38;20.30;65.60
12874;DHT22;6505;51.114;13.128;2022-10-31T11:36:17;20.30;65.10
12874;DHT22;6505;51.114;13.128;2022-10-31T11:38:49;20.40;65.20
12874;DHT22;6505;51.114;13.128;2022-10-31T11:41:25;20.40;65.60
12874;DHT22;6505;51.114;13.128;2022-10-31T11:43:59;20.40;65.60
12874;DHT22;6505;51.114;13.128;2022-10-31T11:46:33;20.40;65.30
12874;DHT22;6505;51.114;13.128;2022-10-31T11:49:04;20.40;65.50
12874;DHT22;6505;51.114;13.128;2022-10-31T11:51:34;20.50;65.30
12874;DHT22;6505;51.114;13.128;2022-10-31T11:54:04;20.50;65.20
12874;DHT22;6505;51.114;13.128;2022-10-31T11:56:41;20.60;65.40
12874;DHT22;6505;51.114;13.128;2022-10-31T11:59:18;20.50;65.30
12874;DHT22;6505;51.114;13.128;2022-10-31T12:01:52;20.50;65.00
12874;DHT22;6505;51.114;13.128;2022-10-31T12:04:32;20.50;65.20
12874;DHT22;6505;51.114;13.128;2022-10-31T12:07:06;20.60;65.30
12874;DHT22;6505;51.114;13.128;2022-10-31T12:09:35;20.60;65.20
12874;DHT22;6505;51.114;13.128;2022-10-31T12:12:30;20.60;65.40
12874;DHT22;6505;51.114;13.128;2022-10-31T12:15:33;20.60;65.50
12874;DHT22;6505;51.114;13.128;2022-10-31T12:18:17;20.70;65.60
12874;DHT22;6505;51.114;13.128;2022-10-31T12:21:13;20.70;65.30
12874;DHT22;6505;51.114;13.128;2022-10-31T12:23:55;20.70;65.20
12874;DHT22;6505;51.114;13.128;2022-10-31T12:26:36;20.70;65.40
12874;DHT22;6505;51.114;13.128;2022-10-31T12:29:22;20.70;65.20
12874;DHT22;6505;51.114;13.128;2022-10-31T12:32:20;20.80;65.30
12874;DHT22;6505;51.114;13.128;2022-10-31T12:35:20;20.80;65.10
12874;DHT22;6505;51.114;13.128;2022-10-31T12:41:14;20.80;64.90
12874;DHT22;6505;51.114;13.128;2022-10-31T12:43:56;20.80;65.10
12874;DHT22;6505;51.114;13.128;2022-10-31T12:47:01;20.80;65.00
12874;DHT22;6505;51.114;13.128;2022-10-31T12:49:48;20.90;65.10
12874;DHT22;6505;51.114;13.128;2022-10-31T12:52:39;20.90;65.00
12874;DHT22;6505;51.114;13.128;2022-10-31T12:55:26;20.90;65.00
12874;DHT22;6505;51.114;13.128;2022-10-31T12:58:07;20.90;64.80
12874;DHT22;6505;51.114;13.128;2022-10-31T13:00:44;21.00;65.00
12874;DHT22;6505;51.114;13.128;2022-10-31T13:03:25;21.00;64.90
12874;DHT22;6505;51.114;13.128;2022-10-31T13:06:02;21.00;64.90
12874;DHT22;6505;51.114;13.128;2022-10-31T13:08:37;21.00;65.00
12874;DHT22;6505;51.114;13.128;2022-10-31T13:11:13;21.00;65.10
12874;DHT22;6505;51.114;13.128;2022-10-31T13:13:53;21.00;64.90
12874;DHT22;6505;51.114;13.128;2022-10-31T13:16:30;21.00;65.00
12874;DHT22;6505;51.114;13.128;2022-10-31T13:19:07;21.10;65.10
12874;DHT22;6505;51.114;13.128;2022-10-31T13:21:45;21.10;64.90
12874;DHT22;6505;51.114;13.128;2022-10-31T13:24:25;21.10;65.00
12874;DHT22;6505;51.114;13.128;2022-10-31T13:26:58;21.20;64.90
12874;DHT22;6505;51.114;13.128;2022-10-31T13:29:33;21.20;64.80
12874;DHT22;6505;51.114;13.128;2022-10-31T13:32:07;21.20;64.70
12874;DHT22;6505;51.114;13.128;2022-10-31T13:34:40;21.20;64.40
12874;DHT22;6505;51.114;13.128;2022-10-31T13:37:18;21.20;64.40
12874;DHT22;6505;51.114;13.128;2022-10-31T13:40:08;21.20;64.20
12874;DHT22;6505;51.114;13.128;2022-10-31T13:42:51;21.30;64.10
12874;DHT22;6505;51.114;13.128;2022-10-31T13:45:26;21.30;63.80
12874;DHT22;6505;51.114;13.128;2022-10-31T13:47:59;21.30;63.60
12874;DHT22;6505;51.114;13.128;2022-10-31T13:50:31;21.30;63.80
12874;DHT22;6505;51.114;13.128;2022-10-31T13:53:11;21.30;63.90
12874;DHT22;6505;51.114;13.128;2022-10-31T13:55:42;21.30;64.00
12874;DHT22;6505;51.114;13.128;2022-10-31T13:58:23;21.40;64.10
12874;DHT22;6505;51.114;13.128;2022-10-31T14:01:10;21.40;64.10
12874;DHT22;6505;51.114;13.128;2022-10-31T14:03:45;21.40;64.00
12874;DHT22;6505;51.114;13.128;2022-10-31T14:06:42;21.40;64.20
12874;DHT22;6505;51.114;13.128;2022-10-31T14:09:24;21.40;64.40
12874;DHT22;6505;51.114;13.128;2022-10-31T14:11:56;21.40;64.50
12874;DHT22;6505;51.114;13.128;2022-10-31T14:14:39;21.40;64.40
12874;DHT22;6505;51.114;13.128;2022-10-31T14:17:19;21.50;64.50
12874;DHT22;6505;51.114;13.128;2022-10-31T14:20:22;21.40;64.70
12874;DHT22;6505;51.114;13.128;2022-10-31T14:22:54;21.40;64.70
12874;DHT22;6505;51.114;13.128;2022-10-31T14:25:27;21.50;64.60
12874;DHT22;6505;51.114;13.128;2022-10-31T14:27:58;21.50;64.90
12874;DHT22;6505;51.114;13.128;2022-10-31T14:30:29;21.50;64.90
12874;DHT22;6505;51.114;13.128;2022-10-31T14:32:59;21.50;65.00
12874;DHT22;6505;51.114;13.128;2022-10-31T14:35:42;21.50;64.90
12874;DHT22;6505;51.114;13.128;2022-10-31T14:38:33;21.50;64.80
12874;DHT22;6505;51.114;13.128;2022-10-31T14:41:25;21.50;64.90
12874;DHT22;6505;51.114;13.128;2022-10-31T14:44:40;21.60;64.90
12874;DHT22;6505;51.114;13.128;2022-10-31T14:47:28;21.50;64.70
12874;DHT22;6505;51.114;13.128;2022-10-31T14:50:23;21.50;64.60
12874;DHT22;6505;51.114;13.128;2022-10-31T14:52:57;21.60;64.80
12874;DHT22;6505;51.114;13.128;2022-10-31T14:55:31;21.60;64.80
12874;DHT22;6505;51.114;13.128;2022-10-31T14:58:01;21.50;64.60
12874;DHT22;6505;51.114;13.128;2022-10-31T15:00:33;21.50;64.70
12874;DHT22;6505;51.114;13.128;2022-10-31T15:03:12;21.50;65.40
12874;DHT22;6505;51.114;13.128;2022-10-31T15:05:46;21.50;64.80
12874;DHT22;6505;51.114;13.128;2022-10-31T15:08:32;21.50;65.00
12874;DHT22;6505;51.114;13.128;2022-10-31T15:11:13;21.50;65.30
12874;DHT22;6505;51.114;13.128;2022-10-31T15:13:44;21.50;65.30
12874;DHT22;6505;51.114;13.128;2022-10-31T15:16:15;21.50;65.30
12874;DHT22;6505;51.114;13.128;2022-10-31T15:18:50;21.50;65.20
12874;DHT22;6505;51.114;13.128;2022-10-31T15:21:22;21.50;65.10
12874;DHT22;6505;51.114;13.128;2022-10-31T15:23:53;21.50;65.20
12874;DHT22;6505;51.114;13.128;2022-10-31T15:26:27;21.50;65.10
12874;DHT22;6505;51.114;13.128;2022-10-31T15:29:01;21.50;65.10
12874;DHT22;6505;51.114;13.128;2022-10-31T15:31:30;21.50;65.20
12874;DHT22;6505;51.114;13.128;2022-10-31T15:34:03;21.50;65.10
12874;DHT22;6505;51.114;13.128;2022-10-31T15:36:34;21.50;65.20
12874;DHT22;6505;51.114;13.128;2022-10-31T15:39:04;21.50;65.00
12874;DHT22;6505;51.114;13.128;2022-10-31T15:41:37;21.50;65.00
12874;DHT22;6505;51.114;13.128;2022-10-31T15:44:23;21.50;65.30
12874;DHT22;6505;51.114;13.128;2022-10-31T15:46:56;21.40;65.10
12874;DHT22;6505;51.114;13.128;2022-10-31T15:49:33;21.40;65.10
12874;DHT22;6505;51.114;13.128;2022-10-31T15:52:11;21.40;65.20
12874;DHT22;6505;51.114;13.128;2022-10-31T15:54:46;21.40;65.10
12874;DHT22;6505;51.114;13.128;2022-10-31T15:57:18;21.40;65.10
12874;DHT22;6505;51.114;13.128;2022-10-31T15:59:48;21.40;65.00
12874;DHT22;6505;51.114;13.128;2022-10-31T16:02:20;21.30;65.00
12874;DHT22;6505;51.114;13.128;2022-10-31T16:04:53;21.30;65.00
12874;DHT22;6505;51.114;13.128;2022-10-31T16:07:22;21.30;65.00
12874;DHT22;6505;51.114;13.128;2022-10-31T16:09:53;21.30;64.90
12874;DHT22;6505;51.114;13.128;2022-10-31T16:12:33;21.20;64.70
12874;DHT22;6505;51.114;13.128;2022-10-31T16:15:04;21.20;64.60
12874;DHT22;6505;51.114;13.128;2022-10-31T16:17:42;21.20;64.70
12874;DHT22;6505;51.114;13.128;2022-10-31T16:20:19;21.20;64.70
12874;DHT22;6505;51.114;13.128;2022-10-31T16:22:51;21.20;64.80
12874;DHT22;6505;51.114;13.128;2022-10-31T16:25:25;21.20;64.70
12874;DHT22;6505;51.114;13.128;2022-10-31T16:27:59;21.20;64.60
12874;DHT22;6505;51.114;13.128;2022-10-31T16:30:38;21.10;64.70
12874;DHT22;6505;51.114;13.128;2022-10-31T16:33:26;21.10;64.60
12874;DHT22;6505;51.114;13.128;2022-10-31T16:35:57;21.10;64.50
12874;DHT22;6505;51.114;13.128;2022-10-31T16:38:41;21.10;64.30
12874;DHT22;6505;51.114;13.128;2022-10-31T16:41:10;21.00;64.20